createdAt,value
2023-04-06T00:00:38.636Z,-1.93
2023-04-06T00:03:36.001Z,-1.97
2023-04-06T00:06:34.129Z,-2.01
2023-04-06T00:09:31.039Z,-1.95
2023-04-06T00:12:27.926Z,-2.02
2023-04-06T00:15:24.762Z,-2.07
2023-04-06T00:18:21.646Z,-2.06
2023-04-06T00:21:18.537Z,-2.16
2023-04-06T00:24:15.752Z,-2.04
2023-04-06T00:27:12.572Z,-2.24
2023-04-06T00:30:10.441Z,-2.11
2023-04-06T00:33:07.392Z,-2.14
2023-04-06T00:36:04.632Z,-2.23
2023-04-06T00:39:01.531Z,-2.22
2023-04-06T00:41:58.460Z,-2.33
2023-04-06T00:44:58.322Z,-2.31
2023-04-06T00:47:55.408Z,-2.22
2023-04-06T00:50:52.291Z,-2.24
2023-04-06T00:53:49.201Z,-2.33
2023-04-06T00:56:46.125Z,-2.29
2023-04-06T00:59:43.886Z,-2.40
2023-04-06T01:02:41.106Z,-2.35
2023-04-06T01:05:41.418Z,-2.33
2023-04-06T01:08:38.470Z,-2.39
2023-04-06T01:11:36.889Z,-2.33
2023-04-06T01:14:33.893Z,-2.27
2023-04-06T01:17:31.031Z,-2.44
2023-04-06T01:20:27.867Z,-2.33
2023-04-06T01:23:24.852Z,-2.33
2023-04-06T01:26:21.856Z,-2.61
2023-04-06T01:29:18.692Z,-2.52
2023-04-06T01:32:15.546Z,-2.55
2023-04-06T01:35:12.552Z,-2.65
2023-04-06T01:38:09.484Z,-2.69
2023-04-06T01:41:06.468Z,-2.62
2023-04-06T01:44:03.790Z,-2.61
2023-04-06T01:47:00.649Z,-2.64
2023-04-06T01:49:57.641Z,-2.47
2023-04-06T01:52:54.465Z,-2.68
2023-04-06T01:55:51.409Z,-2.66
2023-04-06T01:58:48.461Z,-2.72
2023-04-06T02:01:45.464Z,-2.75
2023-04-06T02:04:42.392Z,-2.82
2023-04-06T02:07:39.237Z,-2.80
2023-04-06T02:10:36.148Z,-2.78
2023-04-06T02:13:33.078Z,-2.83
2023-04-06T02:16:30.001Z,-2.88
2023-04-06T02:19:27.116Z,-2.91
2023-04-06T02:22:23.941Z,-3.03
2023-04-06T02:25:20.771Z,-3.15
2023-04-06T02:28:17.619Z,-2.90
2023-04-06T02:31:16.430Z,-3.10
2023-04-06T02:34:18.340Z,-3.03
2023-04-06T02:37:15.800Z,-2.94
2023-04-06T02:40:12.684Z,-3.13
2023-04-06T02:43:09.509Z,-3.10
2023-04-06T02:46:06.399Z,-3.04
2023-04-06T02:49:03.316Z,-3.19
2023-04-06T02:52:01.126Z,-3.12
2023-04-06T02:54:57.986Z,-3.26
2023-04-06T02:57:54.811Z,-3.26
2023-04-06T03:00:51.613Z,-3.32
2023-04-06T03:03:48.725Z,-3.25
2023-04-06T03:06:45.664Z,-3.24
2023-04-06T03:09:42.767Z,-3.12
2023-04-06T03:12:39.658Z,-3.25
2023-04-06T03:15:36.530Z,-3.29
2023-04-06T03:18:33.974Z,-3.26
2023-04-06T03:21:30.782Z,-3.20
2023-04-06T03:24:27.585Z,-3.39
2023-04-06T03:27:24.422Z,-3.41
2023-04-06T03:30:21.269Z,-3.37
2023-04-06T03:33:18.131Z,-3.32
2023-04-06T03:36:15.612Z,-3.34
2023-04-06T03:39:12.461Z,-3.27
2023-04-06T03:42:09.723Z,-3.46
2023-04-06T03:45:07.338Z,-3.41
2023-04-06T03:48:04.756Z,-3.55
2023-04-06T03:51:01.684Z,-3.54
2023-04-06T03:53:58.486Z,-3.64
2023-04-06T03:56:56.090Z,-3.58
2023-04-06T03:59:53.070Z,-3.49
2023-04-06T04:02:49.976Z,-3.58
2023-04-06T04:05:46.918Z,-3.58
2023-04-06T04:08:43.708Z,-3.55
2023-04-06T04:11:40.816Z,-3.59
2023-04-06T04:14:37.674Z,-3.73
2023-04-06T04:17:34.507Z,-3.56
2023-04-06T04:20:31.417Z,-3.61
2023-04-06T04:23:28.227Z,-3.71
2023-04-06T04:26:25.098Z,-3.72
2023-04-06T04:29:23.418Z,-3.64
2023-04-06T04:32:20.815Z,-3.81
2023-04-06T04:35:17.946Z,-3.81
2023-04-06T04:38:14.785Z,-3.65
2023-04-06T04:41:11.639Z,-3.62
2023-04-06T04:44:08.465Z,-3.62
2023-04-06T04:47:06.054Z,-3.73
2023-04-06T04:50:02.905Z,-3.69
2023-04-06T04:52:59.720Z,-3.70
2023-04-06T04:55:56.550Z,-3.77
2023-04-06T04:58:53.391Z,-3.76
2023-04-06T05:01:55.429Z,-3.69
2023-04-06T05:04:52.707Z,-3.67
2023-04-06T05:07:49.542Z,-3.61
2023-04-06T05:10:47.628Z,-3.64
2023-04-06T05:13:44.578Z,-3.52
2023-04-06T05:16:41.395Z,-3.53
2023-04-06T05:19:38.272Z,-3.50
2023-04-06T05:22:35.318Z,-3.44
2023-04-06T05:25:32.932Z,-3.49
2023-04-06T05:28:29.757Z,-3.44
2023-04-06T05:31:26.658Z,-3.61
2023-04-06T05:34:23.597Z,-3.45
2023-04-06T05:37:20.458Z,-3.41
2023-04-06T05:40:17.378Z,-3.39
2023-04-06T05:43:14.185Z,-3.34
2023-04-06T05:46:11.403Z,-3.29
2023-04-06T05:49:08.501Z,-3.25
2023-04-06T05:52:05.922Z,-3.18
2023-04-06T05:55:03.743Z,-3.08
2023-04-06T05:58:00.563Z,-3.04
2023-04-06T06:01:01.688Z,-2.83
2023-04-06T06:03:58.542Z,-2.79
2023-04-06T06:06:55.434Z,-2.70
2023-04-06T06:09:52.273Z,-2.72
2023-04-06T06:12:49.193Z,-2.57
2023-04-06T06:15:47.433Z,-2.39
2023-04-06T06:18:44.273Z,-2.36
2023-04-06T06:21:41.132Z,-2.25
2023-04-06T06:24:37.940Z,-2.08
2023-04-06T06:27:34.740Z,-1.87
2023-04-06T06:30:31.568Z,-1.90
2023-04-06T06:33:28.533Z,-1.86
2023-04-06T06:36:26.717Z,-1.75
2023-04-06T06:39:23.591Z,-1.67
2023-04-06T06:42:20.501Z,-1.52
2023-04-06T06:45:17.497Z,-1.45
2023-04-06T06:48:14.454Z,-1.36
2023-04-06T06:51:12.743Z,-1.16
2023-04-06T06:54:09.768Z,-1.23
2023-04-06T06:57:06.800Z,-1.03
2023-04-06T07:00:06.413Z,-0.87
2023-04-06T07:03:03.819Z,-1.07
2023-04-06T07:06:00.874Z,-0.74
2023-04-06T07:08:57.827Z,-0.66
2023-04-06T07:11:54.742Z,-0.51
2023-04-06T07:14:51.605Z,-0.45
2023-04-06T07:17:48.532Z,-0.33
2023-04-06T07:20:45.888Z,-0.09
2023-04-06T07:23:42.879Z,-0.02
2023-04-06T07:26:39.719Z,0.06
2023-04-06T07:29:36.550Z,0.27
2023-04-06T07:32:35.636Z,0.35
2023-04-06T07:35:32.662Z,0.57
2023-04-06T07:38:29.511Z,0.77
2023-04-06T07:41:26.598Z,0.85
2023-04-06T07:44:23.480Z,1.12
2023-04-06T07:47:20.439Z,1.50
2023-04-06T07:50:17.379Z,1.91
2023-04-06T07:53:14.210Z,2.17
2023-04-06T07:56:11.321Z,2.77
2023-04-06T07:59:08.225Z,3.07
2023-04-06T08:02:05.197Z,3.52
2023-04-06T08:05:02.157Z,4.18
2023-04-06T08:07:59.041Z,5.35
2023-04-06T08:10:55.851Z,6.61
2023-04-06T08:13:53.193Z,6.24
2023-04-06T08:16:49.993Z,7.11
2023-04-06T08:19:46.901Z,7.70
2023-04-06T08:22:43.713Z,8.51
2023-04-06T08:25:40.574Z,10.21
2023-04-06T08:28:37.484Z,8.89
2023-04-06T08:31:36.147Z,9.30
2023-04-06T08:34:36.682Z,9.53
2023-04-06T08:37:33.647Z,9.19
2023-04-06T08:40:30.473Z,9.50
2023-04-06T08:43:29.048Z,9.62
2023-04-06T08:46:32.708Z,11.00
2023-04-06T08:49:29.657Z,10.64
2023-04-06T08:52:27.768Z,10.02
2023-04-06T08:55:26.016Z,10.10
2023-04-06T08:58:35.184Z,9.23
2023-04-06T09:01:41.158Z,10.95
2023-04-06T09:04:38.239Z,10.98
2023-04-06T09:07:35.351Z,12.75
2023-04-06T09:10:33.601Z,9.32
2023-04-06T09:13:31.031Z,8.66
2023-04-06T09:16:27.923Z,9.98
2023-04-06T09:19:24.821Z,10.96
2023-04-06T09:22:22.198Z,10.48
2023-04-06T09:25:25.535Z,10.74
2023-04-06T09:28:22.377Z,10.80
2023-04-06T09:31:34.052Z,8.93
2023-04-06T09:34:31.297Z,8.47
2023-04-06T09:37:29.268Z,10.56
2023-04-06T09:40:27.204Z,12.46
2023-04-06T09:43:31.088Z,9.35
2023-04-06T09:46:28.534Z,11.60
2023-04-06T09:49:29.083Z,9.61
2023-04-06T09:52:36.947Z,11.22
2023-04-06T09:55:43.373Z,8.89
2023-04-06T09:58:44.396Z,11.44
2023-04-06T10:01:41.902Z,13.09
2023-04-06T10:04:49.570Z,10.66
2023-04-06T10:07:59.522Z,10.57
2023-04-06T10:10:57.957Z,10.05
2023-04-06T10:13:56.617Z,12.69
2023-04-06T10:16:53.656Z,11.74
2023-04-06T10:20:11.741Z,13.06
2023-04-06T10:23:30.652Z,11.49
2023-04-06T10:26:27.601Z,13.09
2023-04-06T10:29:25.443Z,12.81
2023-04-06T10:32:42.245Z,12.13
2023-04-06T10:35:39.831Z,11.75
2023-04-06T10:38:41.334Z,12.72
2023-04-06T10:41:48.858Z,14.80
2023-04-06T10:44:46.546Z,11.38
2023-04-06T10:47:43.416Z,10.64
2023-04-06T10:50:41.304Z,12.62
2023-04-06T10:53:38.191Z,12.06
2023-04-06T10:56:39.880Z,13.29
2023-04-06T10:59:36.845Z,12.93
2023-04-06T11:02:33.912Z,13.42
2023-04-06T11:05:31.186Z,14.58
2023-04-06T11:08:31.758Z,15.18
2023-04-06T11:11:28.628Z,13.72
2023-04-06T11:14:25.582Z,13.38
2023-04-06T11:17:29.978Z,13.35
2023-04-06T11:20:27.434Z,12.52
2023-04-06T11:23:26.356Z,12.98
2023-04-06T11:26:23.260Z,12.85
2023-04-06T11:29:27.911Z,13.90
2023-04-06T11:32:25.477Z,13.60
2023-04-06T11:35:24.259Z,12.58
2023-04-06T11:38:21.834Z,14.19
2023-04-06T11:41:19.394Z,13.52
2023-04-06T11:44:16.625Z,14.93
2023-04-06T11:47:13.871Z,13.82
2023-04-06T11:50:15.163Z,14.62
2023-04-06T11:53:12.103Z,14.70
2023-04-06T11:56:08.962Z,15.50
2023-04-06T11:59:05.816Z,15.94
2023-04-06T12:02:03.920Z,15.29
2023-04-06T12:05:00.769Z,15.87
2023-04-06T12:08:00.123Z,14.68
2023-04-06T12:11:00.394Z,13.74
2023-04-06T12:13:57.215Z,15.21
2023-04-06T12:16:54.432Z,15.78
2023-04-06T12:19:51.806Z,15.53
2023-04-06T12:22:48.657Z,14.69
2023-04-06T12:25:45.525Z,13.44
2023-04-06T12:28:42.391Z,13.71
2023-04-06T12:31:41.311Z,15.43
2023-04-06T12:34:39.297Z,15.54
2023-04-06T12:37:36.332Z,15.93
2023-04-06T12:40:39.251Z,16.25
2023-04-06T12:43:36.078Z,14.44
2023-04-06T12:46:33.461Z,13.03
2023-04-06T12:49:31.625Z,11.96
2023-04-06T12:52:31.351Z,13.84
2023-04-06T12:55:31.078Z,14.52
2023-04-06T12:58:28.804Z,12.51
2023-04-06T13:01:26.678Z,14.98
2023-04-06T13:04:24.505Z,15.70
2023-04-06T13:07:21.387Z,14.61
2023-04-06T13:10:18.202Z,15.27
2023-04-06T13:13:19.046Z,14.75
2023-04-06T13:16:16.455Z,12.67
2023-04-06T13:19:13.376Z,14.88
2023-04-06T13:22:10.395Z,16.87
2023-04-06T13:25:07.663Z,15.80
2023-04-06T13:28:04.524Z,15.49
2023-04-06T13:31:03.336Z,14.55
2023-04-06T13:34:00.369Z,15.78
2023-04-06T13:36:57.279Z,16.03
2023-04-06T13:39:54.140Z,16.06
2023-04-06T13:42:51.565Z,16.27
2023-04-06T13:45:56.913Z,15.64
2023-04-06T13:48:53.798Z,15.33
2023-04-06T13:51:50.641Z,14.26
2023-04-06T13:54:47.589Z,14.67
2023-04-06T13:57:44.551Z,15.23
2023-04-06T14:00:41.414Z,16.22
2023-04-06T14:03:38.408Z,15.18
2023-04-06T14:06:35.516Z,14.77
2023-04-06T14:09:32.369Z,15.60
2023-04-06T14:12:29.202Z,15.10
2023-04-06T14:15:26.442Z,15.54
2023-04-06T14:18:27.090Z,14.90
2023-04-06T14:21:23.872Z,14.95
2023-04-06T14:24:21.786Z,15.64
2023-04-06T14:27:18.643Z,16.14
2023-04-06T14:30:15.924Z,15.17
2023-04-06T14:33:13.264Z,15.12
2023-04-06T14:36:10.774Z,15.72
2023-04-06T14:39:08.893Z,14.52
2023-04-06T14:42:05.819Z,14.76
2023-04-06T14:45:02.715Z,13.92
2023-04-06T14:47:59.729Z,14.58
2023-04-06T14:50:57.528Z,15.45
2023-04-06T14:53:55.239Z,14.63
2023-04-06T14:56:52.207Z,14.29
2023-04-06T14:59:49.249Z,14.38
2023-04-06T15:02:46.314Z,13.57
2023-04-06T15:05:43.525Z,13.37
2023-04-06T15:08:40.491Z,13.93
2023-04-06T15:11:37.564Z,14.32
2023-04-06T15:14:34.408Z,14.63
2023-04-06T15:17:31.403Z,13.58
2023-04-06T15:20:28.307Z,13.48
2023-04-06T15:23:25.928Z,14.32
2023-04-06T15:26:22.801Z,14.14
2023-04-06T15:29:19.632Z,13.76
2023-04-06T15:32:16.947Z,14.14
2023-04-06T15:35:14.334Z,12.90
2023-04-06T15:38:11.658Z,13.06
2023-04-06T15:41:11.285Z,13.88
2023-04-06T15:44:08.341Z,13.51
2023-04-06T15:47:05.284Z,13.25
2023-04-06T15:50:02.420Z,13.14
2023-04-06T15:52:59.299Z,13.29
2023-04-06T15:56:03.897Z,13.20
2023-04-06T15:59:00.788Z,12.26
2023-04-06T16:01:57.691Z,12.38
2023-04-06T16:04:58.803Z,12.76
2023-04-06T16:07:55.627Z,13.08
2023-04-06T16:10:52.497Z,13.08
2023-04-06T16:13:55.040Z,13.48
2023-04-06T16:16:53.078Z,12.83
2023-04-06T16:19:49.994Z,12.49
2023-04-06T16:22:47.686Z,12.08
2023-04-06T16:25:44.683Z,12.76
2023-04-06T16:28:42.705Z,11.64
2023-04-06T16:31:41.124Z,11.54
2023-04-06T16:34:38.224Z,11.07
2023-04-06T16:37:36.060Z,10.84
2023-04-06T16:40:32.881Z,10.85
2023-04-06T16:43:29.725Z,10.92
2023-04-06T16:46:34.762Z,10.70
2023-04-06T16:49:31.611Z,10.75
2023-04-06T16:52:28.442Z,10.53
2023-04-06T16:55:25.364Z,9.97
2023-04-06T16:58:22.201Z,9.43
2023-04-06T17:01:25.963Z,9.33
2023-04-06T17:04:23.360Z,8.66
2023-04-06T17:07:22.285Z,8.21
2023-04-06T17:10:24.277Z,7.87
2023-04-06T17:13:30.911Z,8.49
2023-04-06T17:16:29.156Z,7.60
2023-04-06T17:19:26.997Z,7.47
2023-04-06T17:22:23.860Z,7.17
2023-04-06T17:25:21.354Z,6.80
2023-04-06T17:28:18.323Z,6.74
2023-04-06T17:31:15.812Z,6.50
2023-04-06T17:34:12.896Z,6.48
2023-04-06T17:37:09.874Z,6.31
2023-04-06T17:40:07.650Z,6.03
2023-04-06T17:43:07.675Z,5.63
2023-04-06T17:46:05.579Z,5.47
2023-04-06T17:49:02.428Z,5.38
2023-04-06T17:51:59.313Z,4.98
2023-04-06T17:54:56.593Z,4.82
2023-04-06T17:57:53.464Z,5.18
2023-04-06T18:00:50.371Z,4.96
2023-04-06T18:03:47.193Z,4.65
2023-04-06T18:06:43.997Z,4.70
2023-04-06T18:09:40.933Z,4.58
2023-04-06T18:12:38.071Z,4.57
2023-04-06T18:15:36.524Z,4.47
2023-04-06T18:18:33.391Z,4.60
2023-04-06T18:21:32.127Z,4.43
2023-04-06T18:24:41.438Z,4.07
2023-04-06T18:27:39.426Z,3.94
2023-04-06T18:30:36.521Z,4.06
2023-04-06T18:33:33.824Z,4.47
2023-04-06T18:36:31.961Z,4.33
2023-04-06T18:39:28.884Z,3.99
2023-04-06T18:42:25.728Z,3.64
2023-04-06T18:45:23.649Z,3.81
2023-04-06T18:48:20.480Z,3.82
2023-04-06T18:51:17.533Z,3.78
2023-04-06T18:54:14.349Z,3.56
2023-04-06T18:57:11.389Z,3.31
2023-04-06T19:00:09.142Z,3.36
2023-04-06T19:03:06.277Z,3.36
2023-04-06T19:06:07.525Z,3.30
2023-04-06T19:09:05.011Z,3.25
2023-04-06T19:12:01.987Z,3.02
2023-04-06T19:14:58.958Z,3.18
2023-04-06T19:17:55.863Z,3.06
2023-04-06T19:20:53.001Z,3.05
2023-04-06T19:23:52.403Z,2.97
2023-04-06T19:26:49.313Z,2.78
2023-04-06T19:29:46.206Z,2.75
2023-04-06T19:32:43.092Z,2.43
2023-04-06T19:35:39.935Z,2.21
2023-04-06T19:38:38.238Z,2.23
2023-04-06T19:41:35.180Z,2.11
2023-04-06T19:44:32.413Z,2.22
2023-04-06T19:47:29.294Z,2.02
2023-04-06T19:50:26.218Z,1.98
2023-04-06T19:53:23.730Z,2.15
2023-04-06T19:56:20.652Z,2.31
2023-04-06T19:59:18.019Z,2.48
2023-04-06T20:02:15.055Z,2.06
2023-04-06T20:05:12.086Z,2.15
2023-04-06T20:08:09.023Z,2.13
2023-04-06T20:11:09.505Z,1.90
2023-04-06T20:14:06.691Z,2.01
2023-04-06T20:17:03.584Z,1.69
2023-04-06T20:20:00.797Z,1.66
2023-04-06T20:22:57.648Z,1.44
2023-04-06T20:25:54.838Z,1.47
2023-04-06T20:28:51.642Z,1.19
2023-04-06T20:31:49.094Z,1.47
2023-04-06T20:34:48.954Z,1.18
2023-04-06T20:37:46.100Z,1.29
2023-04-06T20:40:47.007Z,1.19
2023-04-06T20:43:43.992Z,1.38
2023-04-06T20:46:41.053Z,1.19
2023-04-06T20:49:37.987Z,1.06
2023-04-06T20:52:34.912Z,1.01
2023-04-06T20:55:31.792Z,0.91
2023-04-06T20:58:28.590Z,1.16
2023-04-06T21:01:25.743Z,1.09
2023-04-06T21:04:23.238Z,0.93
2023-04-06T21:07:20.285Z,0.68
2023-04-06T21:10:17.138Z,0.76
2023-04-06T21:13:13.962Z,0.72
2023-04-06T21:16:11.411Z,0.80
2023-04-06T21:19:08.310Z,0.74
2023-04-06T21:22:05.204Z,0.73
2023-04-06T21:25:02.169Z,0.76
2023-04-06T21:27:58.969Z,0.80
2023-04-06T21:30:56.321Z,0.56
2023-04-06T21:33:53.233Z,0.55
2023-04-06T21:36:50.661Z,0.70
2023-04-06T21:39:47.562Z,0.59
2023-04-06T21:42:44.477Z,0.26
2023-04-06T21:45:41.332Z,0.35
2023-04-06T21:48:38.179Z,0.26
2023-04-06T21:51:35.104Z,0.46
2023-04-06T21:54:33.825Z,0.29
2023-04-06T21:57:30.789Z,0.12
2023-04-06T22:00:27.899Z,0.39
2023-04-06T22:03:24.961Z,0.17
2023-04-06T22:06:24.080Z,0.37
2023-04-06T22:09:20.921Z,0.22
2023-04-06T22:12:17.768Z,0.00
2023-04-06T22:15:14.799Z,0.21
2023-04-06T22:18:11.706Z,0.05
2023-04-06T22:21:08.918Z,0.10
2023-04-06T22:24:06.909Z,0.07
2023-04-06T22:27:03.895Z,-0.08
2023-04-06T22:30:00.967Z,-0.15
2023-04-06T22:32:57.987Z,-0.17
2023-04-06T22:35:54.966Z,-0.11
2023-04-06T22:38:51.856Z,0.04
2023-04-06T22:41:48.725Z,-0.23
2023-04-06T22:44:45.597Z,-0.43
2023-04-06T22:47:43.662Z,0.01
2023-04-06T22:50:40.859Z,0.01
2023-04-06T22:53:37.749Z,0.03
2023-04-06T22:56:34.705Z,-0.20
2023-04-06T22:59:31.719Z,-0.24
2023-04-06T23:02:28.637Z,-0.30
2023-04-06T23:05:25.697Z,-0.23
2023-04-06T23:08:22.565Z,-0.23
2023-04-06T23:11:19.420Z,-0.38
2023-04-06T23:14:16.748Z,-0.36
2023-04-06T23:17:15.044Z,-0.40
2023-04-06T23:20:11.909Z,-0.42
2023-04-06T23:23:08.719Z,-0.30
2023-04-06T23:26:06.067Z,0.11
2023-04-06T23:29:02.933Z,-0.09
2023-04-06T23:31:59.765Z,-0.12
2023-04-06T23:34:56.731Z,-0.16
2023-04-06T23:37:53.624Z,-0.15
2023-04-06T23:40:50.764Z,-0.33
2023-04-06T23:43:47.636Z,-0.30
2023-04-06T23:46:44.599Z,-0.35
2023-04-06T23:49:41.541Z,-0.30
2023-04-06T23:52:38.375Z,-0.57
2023-04-06T23:55:35.573Z,-0.61
2023-04-06T23:58:32.412Z,-0.55
